Time;durP1;ratioP1;P1;durP2;ratioP2;P2;SDS_P1;SDS_P2;PMS_P1;PMS_P2;Temp;Humidity;BMP_temperature;BMP_pressure;BME280_temperature;BME280_humidity;BME280_pressure;Samples;Min_cycle;Max_cycle;Signal;HPM_P1;HPM_P2
2022/09/30 00:01:31;;;;;;;8.52;4.78;;;;;;;10.45;72.11;91741.09;2053038;70;20126;-79
2022/09/30 00:03:58;;;;;;;5.70;4.75;;;;;;;10.40;72.17;91733.78;2052705;70;20146;-78
2022/09/30 00:06:26;;;;;;;6.95;4.57;;;;;;;10.52;71.06;91733.63;2053373;70;20138;-76
2022/09/30 00:08:52;;;;;;;5.43;4.43;;;;;;;10.43;71.48;91732.53;2053060;70;20141;-77
2022/09/30 00:11:26;;;;;;;5.70;4.55;;;;;;;10.41;72.35;91730.38;2052200;70;20197;-79
2022/09/30 00:13:57;;;;;;;5.85;4.75;;;;;;;10.48;71.87;91734.16;2053036;70;20154;-79
2022/09/30 00:16:25;;;;;;;4.93;4.38;;;;;;;10.49;71.62;91735.66;2055294;70;20143;-78
2022/09/30 00:18:55;;;;;;;6.07;4.60;;;;;;;10.54;71.31;91745.72;2052691;70;20142;-79
2022/09/30 00:21:23;;;;;;;5.68;4.63;;;;;;;10.46;72.56;91736.91;2052776;70;20162;-80
2022/09/30 00:23:50;;;;;;;5.57;4.85;;;;;;;10.21;73.48;91735.00;2052775;70;20597;-78
2022/09/30 00:26:20;;;;;;;7.25;4.40;;;;;;;9.98;75.46;91735.31;2052119;70;20170;-79
2022/09/30 00:28:55;;;;;;;6.13;4.22;;;;;;;10.35;72.04;91743.41;2052709;69;20158;-79
2022/09/30 00:31:29;;;;;;;6.40;4.93;;;;;;;10.07;74.12;91740.69;2052746;70;20145;-78
2022/09/30 00:34:08;;;;;;;6.00;4.97;;;;;;;9.64;76.71;91732.34;2052438;70;20166;-78
2022/09/30 00:37:01;;;;;;;5.50;4.68;;;;;;;9.89;74.99;91723.69;2051504;70;20150;-76
2022/09/30 00:39:28;;;;;;;6.90;4.63;;;;;;;10.01;74.87;91722.84;2050675;70;20237;-76
2022/09/30 00:42:00;;;;;;;6.10;4.75;;;;;;;10.06;73.69;91738.53;2051371;70;20149;-75
2022/09/30 00:44:55;;;;;;;5.97;4.75;;;;;;;10.23;73.15;91746.38;2051837;70;20673;-78
2022/09/30 00:48:07;;;;;;;5.05;4.32;;;;;;;10.33;72.67;91746.88;2051140;70;20175;-78
2022/09/30 00:50:44;;;;;;;5.20;4.32;;;;;;;10.30;72.22;91750.22;2050740;70;20149;-78
2022/09/30 00:53:25;;;;;;;5.72;4.60;;;;;;;10.23;73.19;91756.91;2051169;70;20170;-75
2022/09/30 00:56:00;;;;;;;5.45;4.90;;;;;;;10.18;73.83;91759.53;2051160;70;20138;-78
2022/09/30 00:58:32;;;;;;;7.97;4.95;;;;;;;10.32;72.46;91753.13;2051534;70;20129;-78
2022/09/30 01:01:00;;;;;;;6.32;5.20;;;;;;;10.36;71.32;91756.88;2051512;70;20257;-76
2022/09/30 01:03:30;;;;;;;5.30;4.75;;;;;;;10.36;72.13;91764.59;2053887;69;20246;-77
2022/09/30 01:05:56;;;;;;;9.30;5.57;;;;;;;10.34;73.15;91753.22;2051670;70;20155;-78
2022/09/30 01:08:22;;;;;;;9.45;5.80;;;;;;;10.34;73.21;91753.94;2051527;70;20498;-79
2022/09/30 01:10:48;;;;;;;7.25;5.75;;;;;;;10.33;73.15;91763.03;2051573;70;20252;-78
2022/09/30 01:13:16;;;;;;;6.38;5.00;;;;;;;10.37;71.68;91763.22;2051302;70;20745;-75
2022/09/30 01:15:57;;;;;;;8.20;5.68;;;;;;;9.87;75.28;91756.63;2051439;70;20245;-77
2022/09/30 01:18:50;;;;;;;8.23;6.13;;;;;;;9.86;75.43;91758.72;2051402;70;20209;-78
2022/09/30 01:21:32;;;;;;;7.32;5.57;;;;;;;9.88;75.30;91755.97;2051708;69;20154;-76
2022/09/30 01:24:30;;;;;;;6.70;5.88;;;;;;;9.84;75.76;91763.50;2051839;70;20213;-74
2022/09/30 01:27:14;;;;;;;9.18;5.88;;;;;;;9.90;75.22;91764.53;2051124;70;20163;-78
2022/09/30 01:30:03;;;;;;;7.38;6.03;;;;;;;10.07;74.21;91763.19;2051713;70;20241;-75
2022/09/30 01:32:50;;;;;;;9.23;5.63;;;;;;;10.18;73.40;91762.34;2051780;70;20131;-80
2022/09/30 01:35:22;;;;;;;9.85;6.53;;;;;;;10.19;73.11;91755.34;2051706;70;20241;-80
2022/09/30 01:38:07;;;;;;;8.25;6.30;;;;;;;10.06;74.21;91769.47;2051782;69;20138;-78
2022/09/30 01:40:38;;;;;;;7.53;6.20;;;;;;;10.04;73.76;91772.19;2051822;70;20541;-79
2022/09/30 01:43:14;;;;;;;8.20;6.30;;;;;;;10.11;74.00;91771.09;2051871;70;20618;-79
2022/09/30 01:45:52;;;;;;;8.02;6.10;;;;;;;10.24;72.65;91775.22;2051623;70;20201;-80
2022/09/30 01:48:44;;;;;;;7.05;5.85;;;;;;;10.30;72.47;91775.53;2051698;70;20143;-76
2022/09/30 01:51:18;;;;;;;8.65;5.70;;;;;;;10.27;72.61;91782.44;2051940;70;20151;-78
2022/09/30 01:54:01;;;;;;;10.35;6.28;;;;;;;10.25;72.63;91777.44;2051695;70;20494;-79
2022/09/30 01:56:50;;;;;;;9.23;6.18;;;;;;;10.30;72.74;91773.44;2051778;70;20209;-79
2022/09/30 01:59:25;;;;;;;9.98;6.35;;;;;;;10.28;73.03;91772.63;2051637;70;20234;-78
2022/09/30 02:01:54;;;;;;;7.70;6.43;;;;;;;10.22;72.89;91772.31;2051887;70;20166;-79
2022/09/30 02:04:26;;;;;;;10.02;6.45;;;;;;;10.27;71.68;91769.09;2051840;70;20177;-79
2022/09/30 02:06:57;;;;;;;7.75;6.05;;;;;;;10.31;71.72;91774.16;2051607;70;20296;-77
2022/09/30 02:09:31;;;;;;;7.35;6.18;;;;;;;10.22;72.64;91777.94;2051673;70;20150;-77
2022/09/30 02:12:01;;;;;;;8.98;6.85;;;;;;;10.25;72.86;91773.88;2051454;70;20605;-79
2022/09/30 02:14:48;;;;;;;8.43;6.00;;;;;;;10.26;73.29;91781.69;2051497;69;20134;-78
2022/09/30 02:17:20;;;;;;;10.07;6.45;;;;;;;10.22;73.88;91787.13;2048613;70;20530;-78
2022/09/30 02:20:09;;;;;;;8.53;6.07;;;;;;;10.24;74.39;91787.22;2051630;70;20154;-77
2022/09/30 02:22:43;;;;;;;10.98;6.35;;;;;;;10.26;73.56;91792.94;2051801;70;20253;-78
2022/09/30 02:25:19;;;;;;;7.75;6.53;;;;;;;10.27;73.81;91794.41;2051560;70;20207;-75
2022/09/30 02:27:57;;;;;;;9.35;6.78;;;;;;;10.25;73.12;91799.19;2053852;70;20177;-76
2022/09/30 02:30:23;;;;;;;10.00;6.30;;;;;;;10.25;73.88;91797.13;2051574;70;20233;-76
2022/09/30 02:32:54;;;;;;;10.27;6.70;;;;;;;10.28;72.67;91801.50;2051658;70;20229;-78
2022/09/30 02:35:33;;;;;;;8.57;6.87;;;;;;;10.19;73.16;91813.69;2051621;70;20525;-78
2022/09/30 02:38:10;;;;;;;9.05;6.30;;;;;;;10.22;72.66;91804.00;2051588;70;20287;-76
2022/09/30 02:40:49;;;;;;;8.63;6.75;;;;;;;10.14;72.90;91806.41;2051129;70;20170;-79
2022/09/30 02:43:19;;;;;;;8.27;6.65;;;;;;;10.23;72.59;91810.34;2051626;70;20196;-77
2022/09/30 02:46:24;;;;;;;7.60;6.43;;;;;;;10.24;72.54;91812.53;2051463;70;20475;-75
2022/09/30 02:49:06;;;;;;;8.65;6.72;;;;;;;9.97;75.04;91804.91;2051581;70;20479;-77
2022/09/30 02:52:06;;;;;;;10.13;7.72;;;;;;;9.75;75.58;91817.84;2051592;70;20158;-76
2022/09/30 02:55:06;;;;;;;10.45;7.85;;;;;;;9.71;76.18;91812.75;2051612;70;20146;-77
2022/09/30 02:57:52;;;;;;;12.90;8.13;;;;;;;9.70;76.75;91821.81;2048452;70;20180;-79
2022/09/30 03:00:18;;;;;;;10.82;7.38;;;;;;;9.89;75.40;91819.28;2051453;70;20161;-79
2022/09/30 03:02:44;;;;;;;9.80;8.15;;;;;;;9.80;75.58;91825.84;2051689;70;20150;-79
2022/09/30 03:05:10;;;;;;;10.98;8.07;;;;;;;10.01;73.65;91824.06;2051517;70;20189;-79
2022/09/30 03:07:37;;;;;;;11.60;7.63;;;;;;;10.15;72.60;91833.16;2051454;70;20145;-78
2022/09/30 03:10:12;;;;;;;10.70;7.45;;;;;;;9.97;74.15;91833.00;2051396;70;20240;-76
2022/09/30 03:12:59;;;;;;;11.15;8.13;;;;;;;10.05;73.72;91832.69;2051402;70;20150;-79
2022/09/30 03:15:54;;;;;;;9.77;7.55;;;;;;;10.10;73.45;91837.16;2047580;70;20170;-78
2022/09/30 03:18:22;;;;;;;9.90;7.75;;;;;;;10.05;72.01;91839.03;2050909;70;20146;-77
2022/09/30 03:21:25;;;;;;;14.63;8.77;;;;;;;10.00;73.96;91839.47;2051655;70;20238;-77
2022/09/30 03:24:12;;;;;;;12.63;9.15;;;;;;;10.01;73.29;91829.66;2051570;70;20567;-75
2022/09/30 03:27:08;;;;;;;13.68;8.40;;;;;;;10.14;72.54;91842.97;2051601;70;20158;-80
2022/09/30 03:29:52;;;;;;;12.13;8.77;;;;;;;10.10;73.52;91843.50;2051406;70;20135;-80
2022/09/30 03:32:37;;;;;;;11.15;8.52;;;;;;;10.10;72.82;91845.59;2051450;70;20238;-80
2022/09/30 03:35:11;;;;;;;9.27;8.25;;;;;;;10.14;71.89;91838.06;2051406;70;20217;-79
2022/09/30 03:37:45;;;;;;;10.60;8.32;;;;;;;10.14;72.90;91840.16;2051577;70;20241;-79
2022/09/30 03:40:24;;;;;;;12.07;8.68;;;;;;;10.19;72.51;91841.81;2051554;70;20146;-80
2022/09/30 03:42:56;;;;;;;11.43;8.48;;;;;;;10.13;72.28;91842.25;2051544;70;20236;-78
2022/09/30 03:45:36;;;;;;;12.50;9.10;;;;;;;10.21;71.75;91841.91;2050793;70;20154;-80
2022/09/30 03:48:07;;;;;;;11.07;8.80;;;;;;;10.19;72.56;91853.78;2050840;70;20494;-78
2022/09/30 03:50:35;;;;;;;11.38;8.98;;;;;;;10.16;72.00;91849.41;2050960;70;20150;-79
2022/09/30 03:53:02;;;;;;;12.02;9.07;;;;;;;10.16;72.67;91855.03;2051508;70;20636;-75
2022/09/30 03:55:30;;;;;;;12.73;9.20;;;;;;;10.14;72.24;91851.41;2051421;70;20146;-77
2022/09/30 03:57:56;;;;;;;12.15;9.02;;;;;;;10.17;72.17;91853.69;2051396;70;20217;-78
2022/09/30 04:00:22;;;;;;;10.95;9.02;;;;;;;10.15;72.49;91861.28;2051359;70;20150;-76
2022/09/30 04:02:47;;;;;;;14.55;9.48;;;;;;;10.18;72.33;91854.41;2051341;70;20153;-76
2022/09/30 04:05:13;;;;;;;12.18;9.60;;;;;;;10.23;71.07;91849.72;2051401;70;20143;-77
2022/09/30 04:07:38;;;;;;;14.80;10.07;;;;;;;10.27;70.74;91844.31;2051254;70;20138;-79
2022/09/30 04:10:04;;;;;;;12.85;9.85;;;;;;;10.24;71.60;91860.34;2051330;70;20554;-76
2022/09/30 04:12:30;;;;;;;16.23;10.60;;;;;;;10.26;70.96;91857.63;2051300;70;20234;-77
2022/09/30 04:14:56;;;;;;;15.38;10.90;;;;;;;10.21;72.25;91861.59;2051242;70;20677;-78
2022/09/30 04:17:21;;;;;;;16.00;9.93;;;;;;;10.23;71.60;91856.06;2051582;70;20161;-78
2022/09/30 04:19:48;;;;;;;15.38;10.10;;;;;;;10.25;71.87;91859.00;2051295;70;20127;-79
2022/09/30 04:22:13;;;;;;;12.27;9.85;;;;;;;10.21;72.26;91855.97;2051332;70;20173;-79
2022/09/30 04:24:39;;;;;;;12.43;10.05;;;;;;;10.21;72.57;91860.84;2050865;70;20210;-79
2022/09/30 04:27:05;;;;;;;15.23;10.10;;;;;;;10.13;72.82;91864.03;2051247;70;20257;-78
2022/09/30 04:29:30;;;;;;;11.90;9.10;;;;;;;10.19;71.69;91856.59;2051353;70;20543;-76
2022/09/30 04:31:57;;;;;;;14.45;10.30;;;;;;;10.25;71.32;91867.44;2051296;70;20590;-78
2022/09/30 04:34:22;;;;;;;15.50;10.85;;;;;;;10.27;70.78;91859.09;2051515;70;20211;-78
2022/09/30 04:36:48;;;;;;;14.02;9.70;;;;;;;10.11;72.37;91863.91;2051739;70;20301;-79
2022/09/30 04:39:14;;;;;;;12.88;10.07;;;;;;;10.19;72.23;91855.88;2051737;70;20697;-77
2022/09/30 04:41:40;;;;;;;13.10;10.35;;;;;;;10.20;71.70;91860.13;2051779;70;20144;-77
2022/09/30 04:44:06;;;;;;;16.50;12.10;;;;;;;9.96;75.13;91867.38;2051628;70;20149;-79
2022/09/30 04:46:35;;;;;;;16.95;10.80;;;;;;;9.96;74.07;91867.38;2051610;70;20222;-79
2022/09/30 04:49:05;;;;;;;15.85;11.80;;;;;;;9.68;76.35;91873.75;2051621;69;20229;-79
2022/09/30 04:51:30;;;;;;;15.30;10.57;;;;;;;9.79;74.74;91869.38;2051619;70;20134;-79
2022/09/30 04:53:56;;;;;;;17.15;12.10;;;;;;;9.57;77.59;91880.22;2051646;70;20236;-78
2022/09/30 04:56:23;;;;;;;16.17;12.15;;;;;;;9.80;74.77;91884.16;2053875;70;20154;-78
2022/09/30 04:58:49;;;;;;;15.32;11.32;;;;;;;9.91;74.15;91881.22;2051426;70;20154;-78
2022/09/30 05:01:16;;;;;;;17.25;12.43;;;;;;;10.00;73.96;91893.63;2048311;70;20221;-77
2022/09/30 05:03:46;;;;;;;15.35;11.27;;;;;;;9.99;73.71;91897.78;2050978;70;20562;-75
2022/09/30 05:06:13;;;;;;;17.15;11.95;;;;;;;10.01;74.22;91900.69;2051689;70;20150;-75
2022/09/30 05:08:41;;;;;;;17.00;11.75;;;;;;;10.04;73.42;91890.28;2053750;69;20150;-77
2022/09/30 05:11:08;;;;;;;15.25;11.35;;;;;;;10.05;73.44;91894.53;2053646;70;20230;-75
2022/09/30 05:13:39;;;;;;;15.43;11.13;;;;;;;10.10;71.52;91899.75;2051534;70;20225;-76
2022/09/30 05:16:06;;;;;;;17.38;12.75;;;;;;;9.73;75.68;91904.88;2051412;70;20171;-76
2022/09/30 05:18:33;;;;;;;17.50;11.18;;;;;;;9.90;73.96;91901.56;2051563;70;20613;-75
2022/09/30 05:21:00;;;;;;;16.05;10.88;;;;;;;10.07;73.19;91909.41;2051617;70;20210;-78
2022/09/30 05:23:29;;;;;;;15.73;10.13;;;;;;;10.07;72.64;91909.41;2051639;70;20276;-79
2022/09/30 05:25:56;;;;;;;16.85;11.30;;;;;;;10.07;73.26;91909.41;2051551;70;20276;-75
2022/09/30 05:28:21;;;;;;;16.17;10.98;;;;;;;10.00;72.50;91916.13;2051565;70;20173;-74
2022/09/30 05:30:49;;;;;;;19.13;12.07;;;;;;;9.94;72.43;91912.97;2051464;70;20487;-75
2022/09/30 05:33:15;;;;;;;15.25;11.25;;;;;;;10.08;72.13;91924.22;2051528;70;20502;-75
2022/09/30 05:35:41;;;;;;;18.30;11.95;;;;;;;10.11;71.71;91920.88;2051517;69;20189;-78
2022/09/30 05:38:09;;;;;;;22.17;15.85;;;;;;;9.71;76.86;91930.06;2051679;70;20142;-73
2022/09/30 05:40:38;;;;;;;24.30;16.25;;;;;;;9.87;75.17;91928.81;2053746;70;20150;-77
2022/09/30 05:43:06;;;;;;;28.65;17.23;;;;;;;9.76;76.21;91937.34;2051681;70;20542;-75
2022/09/30 05:45:32;;;;;;;22.42;15.65;;;;;;;9.57;76.74;91942.03;2051406;70;20213;-74
2022/09/30 05:47:58;;;;;;;17.45;12.88;;;;;;;9.71;76.00;91958.91;2051673;70;20170;-78
2022/09/30 05:50:24;;;;;;;19.20;13.25;;;;;;;9.56;76.46;91951.09;2051446;70;20254;-78
2022/09/30 05:52:50;;;;;;;18.60;13.25;;;;;;;9.84;74.86;91958.16;2051458;70;20135;-77
2022/09/30 05:55:18;;;;;;;21.40;13.95;;;;;;;9.78;75.07;91960.69;2048235;70;20325;-79
2022/09/30 05:57:47;;;;;;;20.13;13.88;;;;;;;9.72;75.88;91959.66;2051439;70;20146;-78
2022/09/30 06:00:13;;;;;;;22.48;14.75;;;;;;;9.58;76.40;91960.38;2051342;70;20551;-75
2022/09/30 06:02:40;;;;;;;22.20;15.43;;;;;;;9.14;80.01;91961.53;2053592;70;20179;-77
2022/09/30 06:05:09;;;;;;;20.02;14.60;;;;;;;9.53;78.62;91963.56;2051459;70;20256;-76
2022/09/30 06:07:36;;;;;;;18.73;13.48;;;;;;;9.83;75.77;91967.97;2051453;69;20205;-72
2022/09/30 06:10:04;;;;;;;18.83;13.52;;;;;;;9.92;74.59;91975.47;2051374;70;20494;-75
2022/09/30 06:12:29;;;;;;;20.60;14.23;;;;;;;10.02;74.79;91974.53;2051374;70;20146;-77
2022/09/30 06:14:55;;;;;;;22.60;14.55;;;;;;;10.07;74.44;91976.19;2051269;70;20154;-80
2022/09/30 06:17:22;;;;;;;18.42;13.13;;;;;;;10.10;73.92;91978.47;2051385;70;20297;-80
2022/09/30 06:19:48;;;;;;;20.77;13.65;;;;;;;10.09;73.89;91990.38;2051434;70;20153;-76
2022/09/30 06:22:16;;;;;;;20.50;14.35;;;;;;;9.78;76.67;91990.88;2050888;70;20169;-77
2022/09/30 06:24:43;;;;;;;29.60;15.75;;;;;;;9.68;75.78;92000.22;2053626;70;20260;-78
2022/09/30 06:27:09;;;;;;;33.80;20.75;;;;;;;9.58;77.65;91990.53;2051395;70;20268;-78
2022/09/30 06:29:35;;;;;;;23.70;15.80;;;;;;;9.87;75.70;91995.56;2050759;70;20205;-76
2022/09/30 06:32:01;;;;;;;32.33;18.30;;;;;;;9.88;76.32;91999.81;2051488;70;20618;-78
2022/09/30 06:34:27;;;;;;;27.30;17.70;;;;;;;9.99;74.72;92001.81;2051436;70;20601;-77
2022/09/30 06:36:53;;;;;;;26.40;16.73;;;;;;;9.89;75.88;91995.66;2051477;70;20150;-77
2022/09/30 06:39:19;;;;;;;20.88;15.10;;;;;;;9.24;79.52;91995.75;2051441;70;20145;-77
2022/09/30 06:41:45;;;;;;;22.75;15.52;;;;;;;9.56;78.24;92002.38;2048206;70;20236;-76
2022/09/30 06:44:23;;;;;;;22.45;14.68;;;;;;;9.86;75.78;92000.47;2053408;70;20173;-77
2022/09/30 06:46:48;;;;;;;18.88;13.07;;;;;;;9.97;74.92;92006.59;2051523;70;20146;-77
2022/09/30 06:49:17;;;;;;;18.50;13.98;;;;;;;9.80;77.17;91996.59;2051361;70;20594;-79
2022/09/30 06:51:42;;;;;;;19.95;13.15;;;;;;;10.04;75.43;91997.88;2051005;70;20700;-77
2022/09/30 06:54:08;;;;;;;21.42;14.85;;;;;;;9.60;77.98;91999.06;2051405;69;20605;-79
2022/09/30 06:56:35;;;;;;;18.08;13.40;;;;;;;9.86;76.40;91997.66;2051783;69;20142;-79
2022/09/30 06:59:01;;;;;;;18.88;13.65;;;;;;;10.05;75.70;92001.41;2048072;70;20336;-79
2022/09/30 07:01:28;;;;;;;18.08;13.07;;;;;;;10.15;75.00;92007.53;2051499;70;20253;-75
2022/09/30 07:03:56;;;;;;;18.30;13.30;;;;;;;10.25;74.95;92001.72;2051332;70;20181;-74
2022/09/30 07:06:27;;;;;;;16.48;12.02;;;;;;;10.31;73.27;92014.03;2051390;70;20247;-75
2022/09/30 07:08:54;;;;;;;18.52;13.52;;;;;;;10.29;74.20;92002.66;2051427;70;20589;-75
2022/09/30 07:11:19;;;;;;;17.38;12.70;;;;;;;10.27;73.28;92013.81;2051292;70;20237;-74
2022/09/30 07:13:48;;;;;;;18.88;13.35;;;;;;;10.40;72.63;92015.13;2051319;70;20229;-76
2022/09/30 07:16:16;;;;;;;19.20;13.20;;;;;;;10.24;74.86;92025.56;2051502;70;20233;-79
2022/09/30 07:18:43;;;;;;;19.73;12.95;;;;;;;10.35;73.51;92030.38;2048221;70;20233;-79
2022/09/30 07:21:11;;;;;;;19.05;12.70;;;;;;;10.17;74.93;92030.13;2051407;70;20601;-80
2022/09/30 07:23:37;;;;;;;17.88;13.40;;;;;;;10.33;74.45;92030.28;2051243;70;20126;-80
2022/09/30 07:26:03;;;;;;;18.77;13.48;;;;;;;10.30;73.28;92026.63;2051124;70;20146;-80
2022/09/30 07:28:33;;;;;;;19.08;12.95;;;;;;;10.56;72.03;92026.50;2051337;70;20251;-80
2022/09/30 07:31:07;;;;;;;19.75;13.95;;;;;;;10.61;71.14;92028.88;2051401;70;20148;-79
2022/09/30 07:33:34;;;;;;;15.80;12.38;;;;;;;10.63;71.65;92025.47;2051375;70;20158;-79
2022/09/30 07:36:02;;;;;;;16.27;12.02;;;;;;;10.72;71.65;92035.75;2051463;70;20146;-77
2022/09/30 07:38:30;;;;;;;23.67;14.20;;;;;;;10.35;75.17;92038.81;2051316;70;20611;-73
2022/09/30 07:40:59;;;;;;;18.35;14.27;;;;;;;10.21;75.63;92035.25;2051277;70;20235;-76
2022/09/30 07:43:33;;;;;;;18.40;14.02;;;;;;;10.23;75.75;92029.75;2051232;70;20638;-77
2022/09/30 07:46:08;;;;;;;19.50;14.55;;;;;;;10.23;75.92;92033.28;2051184;70;20216;-78
2022/09/30 07:51:02;;;;;;;15.50;12.10;;;;;;;10.30;75.15;92026.63;2051131;69;20150;-76
2022/09/30 07:53:28;;;;;;;16.33;12.00;;;;;;;10.11;75.49;92032.63;2053369;70;20150;-79
2022/09/30 07:55:53;;;;;;;16.15;12.40;;;;;;;10.40;74.29;92034.84;2051139;70;20149;-76
2022/09/30 07:58:21;;;;;;;15.32;11.52;;;;;;;10.66;73.54;92036.16;2051282;70;20673;-78
2022/09/30 08:00:49;;;;;;;14.98;11.70;;;;;;;10.90;73.07;92044.34;2051034;70;20150;-78
2022/09/30 08:03:15;;;;;;;16.92;11.88;;;;;;;11.02;71.71;92044.94;2051418;70;20529;-79
2022/09/30 08:05:44;;;;;;;15.88;11.60;;;;;;;11.07;72.07;92057.16;2050672;70;20678;-77
2022/09/30 08:08:11;;;;;;;19.20;11.82;;;;;;;11.14;71.66;92048.38;2051392;70;20276;-78
2022/09/30 08:10:39;;;;;;;15.40;11.52;;;;;;;11.26;70.90;92056.66;2051585;70;20138;-78
2022/09/30 08:13:05;;;;;;;12.50;9.65;;;;;;;11.49;68.28;92052.09;2051585;70;20174;-76
2022/09/30 08:15:30;;;;;;;12.00;9.95;;;;;;;11.61;67.94;92053.38;2051626;70;20145;-78
2022/09/30 08:17:56;;;;;;;12.25;10.05;;;;;;;11.65;70.63;92052.84;2051136;70;20147;-76
2022/09/30 08:20:23;;;;;;;14.60;9.85;;;;;;;11.74;69.75;92051.88;2052010;70;20154;-75
2022/09/30 08:22:53;;;;;;;12.40;9.10;;;;;;;12.06;68.81;92054.72;2051739;70;20225;-76
2022/09/30 08:25:18;;;;;;;12.98;8.70;;;;;;;12.29;67.12;92059.28;2051591;70;20622;-75
2022/09/30 08:27:45;;;;;;;17.85;8.68;;;;;;;12.52;67.39;92052.50;2051637;70;20153;-78
2022/09/30 08:30:11;;;;;;;14.23;10.43;;;;;;;12.66;67.81;92051.00;2051543;70;20142;-77
2022/09/30 08:32:37;;;;;;;13.85;10.38;;;;;;;12.55;68.71;92056.84;2051788;70;20146;-75
2022/09/30 08:35:03;;;;;;;12.55;9.73;;;;;;;12.66;68.15;92061.59;2051607;70;20158;-79
2022/09/30 08:37:29;;;;;;;10.38;9.10;;;;;;;11.96;68.73;92060.66;2051564;70;20146;-79
2022/09/30 08:39:55;;;;;;;12.55;10.02;;;;;;;12.15;67.88;92071.38;2051752;70;20220;-76
2022/09/30 08:42:32;;;;;;;11.80;9.48;;;;;;;12.48;67.48;92072.09;2051524;70;20150;-74
2022/09/30 08:45:22;;;;;;;12.13;9.30;;;;;;;12.49;67.81;92068.63;2051401;70;20583;-74
2022/09/30 08:47:47;;;;;;;14.57;9.32;;;;;;;12.63;66.61;92063.59;2051569;70;20162;-77
2022/09/30 08:50:41;;;;;;;15.15;9.32;;;;;;;12.25;66.46;92064.75;2051581;70;20126;-75
2022/09/30 08:53:20;;;;;;;11.27;9.07;;;;;;;12.62;66.49;92069.88;2051599;70;20177;-78
2022/09/30 08:55:46;;;;;;;11.40;9.68;;;;;;;12.19;67.68;92087.78;2051825;70;20169;-77
2022/09/30 08:58:29;;;;;;;12.55;10.15;;;;;;;12.01;69.28;92087.66;2051498;70;20146;-74
2022/09/30 09:01:04;;;;;;;13.75;11.07;;;;;;;11.95;69.29;92090.19;2051714;70;20138;-79
2022/09/30 09:03:30;;;;;;;12.23;9.70;;;;;;;12.21;67.35;92099.13;2051710;70;20220;-76
2022/09/30 09:06:14;;;;;;;15.63;10.07;;;;;;;12.25;67.79;92109.88;2051559;70;20170;-76
2022/09/30 09:08:52;;;;;;;12.68;10.10;;;;;;;11.69;68.78;92115.78;2051549;70;20150;-76
2022/09/30 09:11:42;;;;;;;13.10;10.02;;;;;;;11.97;68.31;92124.16;2051504;70;20150;-79
2022/09/30 09:14:39;;;;;;;10.63;9.20;;;;;;;12.06;67.92;92137.25;2051618;70;20208;-76
2022/09/30 09:17:14;;;;;;;11.70;9.43;;;;;;;12.11;67.71;92141.00;2051575;70;20471;-78
2022/09/30 09:19:55;;;;;;;14.05;10.25;;;;;;;11.79;68.95;92146.56;2051739;70;20145;-78
2022/09/30 09:22:21;;;;;;;14.07;10.27;;;;;;;11.75;68.98;92137.19;2051157;70;20333;-78
2022/09/30 09:24:50;;;;;;;18.77;11.45;;;;;;;11.87;68.37;92146.97;2051648;70;20146;-77
2022/09/30 09:27:20;;;;;;;13.77;11.00;;;;;;;11.33;70.88;92147.88;2051302;70;20178;-77
2022/09/30 09:30:00;;;;;;;14.52;11.40;;;;;;;11.48;70.24;92146.47;2051411;70;20154;-74
2022/09/30 09:32:26;;;;;;;14.45;10.63;;;;;;;11.55;69.55;92145.41;2051492;70;20638;-75
2022/09/30 09:35:00;;;;;;;13.15;10.20;;;;;;;10.98;72.35;92145.41;2051545;70;20147;-73
2022/09/30 09:40:40;;;;;;;15.27;10.82;;;;;;;11.11;71.93;92144.66;2047833;70;20169;-73
2022/09/30 09:43:18;;;;;;;14.90;10.10;;;;;;;11.26;71.52;92135.53;2051473;70;20170;-75
2022/09/30 09:45:47;;;;;;;15.00;10.82;;;;;;;11.60;70.36;92149.88;2051240;70;20146;-74
2022/09/30 09:48:15;;;;;;;14.43;10.75;;;;;;;11.36;71.44;92149.41;2051364;70;20204;-76
2022/09/30 09:50:56;;;;;;;12.90;10.57;;;;;;;11.39;70.45;92150.97;2051414;70;20153;-74
2022/09/30 09:53:46;;;;;;;11.95;9.40;;;;;;;12.06;69.68;92145.72;2051546;70;20595;-76
2022/09/30 09:56:21;;;;;;;11.27;8.20;;;;;;;12.73;66.65;92134.59;2051468;70;20149;-74
2022/09/30 09:59:13;;;;;;;13.98;9.82;;;;;;;12.35;68.70;92150.56;2048023;70;20225;-75
2022/09/30 10:01:49;;;;;;;12.07;8.98;;;;;;;12.36;68.42;92157.66;2051629;70;20491;-73
2022/09/30 10:04:24;;;;;;;12.65;8.82;;;;;;;13.30;66.85;92155.41;2051430;70;20134;-73
2022/09/30 10:06:51;;;;;;;13.48;9.90;;;;;;;13.14;65.57;92156.13;2051598;70;20209;-76
2022/09/30 10:09:22;;;;;;;12.27;9.13;;;;;;;12.94;66.37;92160.94;2052170;70;20157;-72
2022/09/30 10:11:49;;;;;;;11.02;8.80;;;;;;;13.65;64.60;92161.13;2054841;70;20192;-72
2022/09/30 10:14:20;;;;;;;10.55;7.28;;;;;;;14.05;64.09;92147.13;2054818;70;20213;-72
2022/09/30 10:16:47;;;;;;;8.10;6.82;;;;;;;13.98;62.98;92143.34;2054105;70;20708;-72
2022/09/30 10:19:20;;;;;;;7.68;6.15;;;;;;;14.47;61.61;92142.38;2053393;70;20142;-73
2022/09/30 10:21:45;;;;;;;;;;;;;;;14.43;61.73;92149.97;2052905;69;20263;-75
2022/09/30 10:24:19;;;;;;;10.75;9.10;;;;;;;13.51;63.69;92143.56;2051854;70;20085;-75
2022/09/30 10:26:45;;;;;;;10.57;8.68;;;;;;;13.26;64.85;92139.00;2055818;70;20139;-75
2022/09/30 10:29:30;;;;;;;10.05;8.48;;;;;;;14.10;62.86;92142.34;2052015;69;20521;-75
2022/09/30 10:32:02;;;;;;;9.90;8.65;;;;;;;13.68;64.08;92128.72;2051823;70;20532;-73
2022/09/30 10:34:41;;;;;;;10.70;9.05;;;;;;;14.12;63.57;92134.69;2052574;70;20180;-74
2022/09/30 10:37:20;;;;;;;11.35;9.20;;;;;;;14.23;64.16;92135.78;2051056;70;20159;-74
2022/09/30 10:39:56;;;;;;;10.00;8.38;;;;;;;14.01;63.48;92146.25;2051267;70;20137;-77
2022/09/30 10:42:26;;;;;;;9.18;7.90;;;;;;;14.46;63.03;92146.59;2051213;70;20146;-76
2022/09/30 10:44:56;;;;;;;10.85;8.15;;;;;;;15.71;59.62;92151.75;2050720;70;20177;-76
2022/09/30 10:47:25;;;;;;;8.77;7.45;;;;;;;15.67;58.26;92145.94;2050626;70;20158;-77
2022/09/30 10:50:03;;;;;;;8.60;7.70;;;;;;;16.22;57.51;92155.50;2050690;70;20134;-74
2022/09/30 10:52:36;;;;;;;9.52;7.53;;;;;;;18.12;53.80;92152.22;2051063;70;20138;-76
2022/09/30 10:55:13;;;;;;;7.28;6.32;;;;;;;19.35;51.20;92167.06;2050709;70;20189;-75
2022/09/30 10:57:39;;;;;;;6.57;5.85;;;;;;;20.10;46.94;92170.59;2050678;70;20477;-75
2022/09/30 11:00:05;;;;;;;6.78;5.65;;;;;;;18.09;49.48;92159.28;2051047;70;20532;-76
2022/09/30 11:02:59;;;;;;;7.28;5.07;;;;;;;18.17;49.36;92165.91;2050350;70;20239;-75
2022/09/30 11:05:29;;;;;;;7.95;6.30;;;;;;;18.43;49.07;92170.78;2050893;70;20248;-76
2022/09/30 11:08:24;;;;;;;7.07;5.43;;;;;;;18.68;48.87;92169.91;2050799;70;20181;-76
2022/09/30 11:11:13;;;;;;;5.43;4.90;;;;;;;19.30;46.40;92169.84;2051017;70;20138;-74
2022/09/30 11:14:08;;;;;;;7.15;5.38;;;;;;;18.51;48.52;92179.53;2053420;69;20166;-76
2022/09/30 11:17:12;;;;;;;5.45;4.90;;;;;;;17.34;49.39;92181.53;2037150;70;20751;-76
2022/09/30 11:20:08;;;;;;;5.13;4.00;;;;;;;17.78;47.70;92182.03;2036927;70;20160;-77
2022/09/30 11:23:01;;;;;;;6.53;4.72;;;;;;;17.41;48.00;92174.63;2036615;70;20592;-77
2022/09/30 11:25:46;;;;;;;5.65;4.80;;;;;;;18.44;48.09;92172.94;2034796;70;20140;-77
2022/09/30 11:28:24;;;;;;;5.47;4.75;;;;;;;19.10;47.05;92177.25;2036486;70;20163;-74
2022/09/30 11:31:23;;;;;;;4.63;4.05;;;;;;;18.92;46.25;92175.47;2036269;70;20611;-75
2022/09/30 11:34:23;;;;;;;4.65;3.70;;;;;;;18.95;46.96;92181.94;2036520;70;20251;-74
2022/09/30 11:37:07;;;;;;;5.40;4.53;;;;;;;18.86;48.28;92177.47;2036513;70;20182;-76
2022/09/30 11:39:46;;;;;;;4.47;4.07;;;;;;;18.82;47.51;92180.94;2036292;70;20673;-75
2022/09/30 11:42:40;;;;;;;6.53;4.60;;;;;;;18.89;47.71;92184.66;2036273;70;20163;-73
2022/09/30 11:45:41;;;;;;;5.20;4.55;;;;;;;18.18;47.94;92178.72;2036508;70;20288;-75
2022/09/30 11:48:26;;;;;;;6.05;4.10;;;;;;;18.56;48.16;92181.06;2036189;70;20148;-77
2022/09/30 11:51:06;;;;;;;3.70;3.35;;;;;;;18.66;46.22;92183.41;2036246;70;20247;-74
2022/09/30 11:54:10;;;;;;;3.53;3.22;;;;;;;18.26;47.43;92175.34;2046628;70;20178;-76
2022/09/30 11:56:39;;;;;;;;;;;;;;;18.38;47.55;92180.63;2050952;70;20177;-74
2022/09/30 11:59:13;;;;;;;4.28;3.88;;;;;;;17.67;46.79;92185.97;2050683;70;20478;-75
2022/09/30 12:01:48;;;;;;;3.42;3.13;;;;;;;18.17;47.32;92185.81;2051101;70;20225;-76